VERT2: Pease River Nr Vernon, TX

Data processed at Wed May 22 2019 23:50


All information presented herein is the property of the government of the United States of America and may be revised or deleted at any time without prior notice.
Dissemination of this information without the expressed written consent of the Public Affairs Office, Tulsa District U.S. Army Corps of Engineers is strictly prohibited.
These data are gathered electronically and, as presented, have not undergone any form of quality control. These data are not guaranteed to be valid or correct.
Go to home page.
Go to station list.
Go to home page.

Downstream station:


Previous Day
Next Day
Current Day
    
SHEF ID:       VERT2     Pease River nr Vernon, TX
STATION TYPE:  
Regulating: Stage =    15.00, Flow =    12297

               PRECIP     STAGE  RIV-FLOW  BAT-LOAD
                   in        ft       cfs      volt
              Ccp-Rev   Ccp-Rev   Ccp-Rev   Ccp-Rev
(US/Central)
05/22 00:00      0.00      8.12       789     12.48
05/22 01:00      0.00      8.02       739     12.42
05/22 02:00      0.00      7.88       671     12.42
05/22 03:00      0.00      7.78       626     12.36
05/22 04:00      0.00      7.64       566     12.36
05/22 05:00      0.00      7.54       525     12.36
05/22 06:00      0.00      7.47       498     12.36
05/22 07:00      0.00      7.39       467     12.36
05/22 08:00      0.00      7.27       422     12.36
05/22 09:00      0.00      7.19       394     12.36
05/22 10:00      0.00      7.12       371     12.42
05/22 11:00      0.00      7.01       336     12.42
05/22 12:00      0.00      6.89       300     12.48
05/22 13:00      0.00      6.91       306     12.54
05/22 14:00      0.00      6.78       270     12.54
05/22 15:00      0.00      6.69       247     12.54
05/22 16:00      0.00      6.59       223     12.54
05/22 17:00      0.00      6.65       237     12.60
05/22 18:00      0.00      6.65       237     12.60
05/22 19:00      0.00      6.57       218     12.60
05/22 20:00      0.00      6.42       185     12.54
05/22 21:00      0.00      6.43       187     12.54
05/22 22:00      0.00      6.53       209     12.48
05/22 23:00      0.00      6.38       177     12.42